North Hudson, Wisconsin
Current Conditions -  °F | °C
As of 4:11 PM on Monday 26 Jan 2015 (Local Time) from K21D Reporting Station
Overcast Overcast  
Wind Chill: 36°   Ceiling: 3400
Heat Index: 41°   Visibility: 10mi
Dew Point: 32°   Wind: 7mph
Humidity: 70%   Direction: 300°WNW
Pressure: 29.78"   Gusts: NA
Location:  44.9743°N, 92.6899°W
Report Text: K21D 262211Z AUTO 30006KT 10SM OVC034 05/00 A2978 RMK AO2
Loading
Personal Weather Stations






























Interactive Weather Map New forecast layout! Learn more

10-Day Weather Forecast

Advertisements
Track Severe Weather on mobile